sim
Sign-in with your pilot id or email,
or register
Callsign
Passwort

Schedule Details

Flight Number: DLH1836
Departure: Munich Airport (EDDM) at 07:55
Arrival: Fuerteventura Airport (GCFV) at 12:25
Route: Lufthansa Passenger Schedule. Enter filed route here before submitting Pirep.

Weather Information
Getting current METAR information for EDDM 212150Z 06003KT CAVOK 07/M02 Q1016 NOSIG
Getting current METAR information for GCFV 212130Z 34010KT 300V360 9999 SCT029 19/13 Q1015

Schedule Frequency

Route Map